Time;durP1;ratioP1;P1;durP2;ratioP2;P2;SDS_P1;SDS_P2;PMS_P1;PMS_P2;Temp;Humidity;BMP_temperature;BMP_pressure;BME280_temperature;BME280_humidity;BME280_pressure;Samples;Min_cycle;Max_cycle;Signal;HPM_P1;HPM_P2
2023/08/23 00:01:29;;;;;;;7.00;5.70;;;;;;;;;;5033464;28;20199;-68
2023/08/23 00:03:55;;;;;;;9.60;5.20;;;;;;;;;;5033623;28;20258;-67
2023/08/23 00:06:21;;;;;;;8.97;5.00;;;;;;;;;;5033318;28;20202;-67
2023/08/23 00:08:48;;;;;;;6.60;4.70;;;;;;;;;;5033235;28;20182;-68
2023/08/23 00:11:14;;;;;;;9.77;4.80;;;;;;;;;;5033099;28;20183;-68
2023/08/23 00:13:40;;;;;;;10.37;4.63;;;;;;;;;;5015476;28;20641;-67
2023/08/23 00:16:06;;;;;;;10.60;5.00;;;;;;;;;;5032976;28;20661;-68
2023/08/23 00:18:32;;;;;;;6.70;5.23;;;;;;;;;;5015167;28;20274;-68
2023/08/23 00:20:58;;;;;;;8.20;5.13;;;;;;;;;;5032702;28;20588;-68
2023/08/23 00:23:24;;;;;;;8.70;6.10;;;;;;;;;;5033887;28;20531;-67
2023/08/23 00:25:50;;;;;;;9.60;6.03;;;;;;;;;;5037142;28;20535;-67
2023/08/23 00:28:19;;;;;;;13.63;6.00;;;;;;;;;;5036635;28;20176;-68
2023/08/23 00:30:49;;;;;;;10.30;6.30;;;;;;;;;;5018901;28;20270;-68
2023/08/23 00:33:15;;;;;;;9.70;5.63;;;;;;;;;;5036803;28;20179;-67
2023/08/23 00:35:41;;;;;;;8.30;5.53;;;;;;;;;;5036437;28;20237;-68
2023/08/23 00:38:07;;;;;;;7.20;5.20;;;;;;;;;;5036931;28;20179;-68
2023/08/23 00:40:33;;;;;;;8.23;4.90;;;;;;;;;;5019469;28;20270;-68
2023/08/23 00:42:59;;;;;;;11.20;5.50;;;;;;;;;;5018830;28;20609;-68
2023/08/23 00:45:25;;;;;;;6.97;5.53;;;;;;;;;;5018650;28;20214;-68
2023/08/23 00:47:51;;;;;;;7.50;5.50;;;;;;;;;;5036474;28;20176;-68
2023/08/23 00:50:17;;;;;;;6.30;5.00;;;;;;;;;;5036335;28;20171;-68
2023/08/23 00:52:43;;;;;;;10.67;5.70;;;;;;;;;;5036863;28;20256;-68
2023/08/23 00:55:10;;;;;;;6.97;5.73;;;;;;;;;;5018881;28;20720;-68
2023/08/23 00:57:37;;;;;;;9.37;5.40;;;;;;;;;;5037298;28;20691;-68
2023/08/23 01:00:03;;;;;;;7.77;5.50;;;;;;;;;;5037368;28;20651;-69
2023/08/23 01:02:29;;;;;;;10.73;6.00;;;;;;;;;;5019894;28;20210;-68
2023/08/23 01:04:55;;;;;;;9.90;5.60;;;;;;;;;;5037636;28;20265;-68
2023/08/23 01:07:30;;;;;;;8.60;5.20;;;;;;;;;;5036770;28;20195;-68
2023/08/23 01:10:08;;;;;;;8.43;5.80;;;;;;;;;;5020406;28;20198;-68
2023/08/23 01:12:41;;;;;;;10.50;5.27;;;;;;;;;;5037329;28;20158;-67
2023/08/23 01:15:10;;;;;;;6.73;4.70;;;;;;;;;;5037649;28;20167;-68
2023/08/23 01:17:41;;;;;;;10.97;5.33;;;;;;;;;;5018736;28;20221;-67
2023/08/23 01:20:09;;;;;;;8.33;5.67;;;;;;;;;;5017365;28;20478;-68
2023/08/23 01:22:37;;;;;;;9.57;5.57;;;;;;;;;;5036241;28;20493;-68
2023/08/23 01:25:03;;;;;;;8.13;5.80;;;;;;;;;;5036593;28;20620;-68
2023/08/23 01:27:29;;;;;;;8.47;4.80;;;;;;;;;;5018103;28;20199;-68
2023/08/23 01:29:55;;;;;;;7.70;5.27;;;;;;;;;;5018393;28;20542;-68
2023/08/23 01:32:28;;;;;;;7.10;4.77;;;;;;;;;;5036474;28;20180;-68
2023/08/23 01:34:56;;;;;;;8.87;5.43;;;;;;;;;;5036449;28;20550;-67
2023/08/23 01:37:23;;;;;;;8.73;5.97;;;;;;;;;;5016799;28;20473;-68
2023/08/23 01:39:51;;;;;;;10.53;6.37;;;;;;;;;;5035790;28;20182;-70
2023/08/23 01:42:18;;;;;;;10.30;6.17;;;;;;;;;;5017633;28;20206;-68
2023/08/23 01:44:44;;;;;;;10.83;7.40;;;;;;;;;;5035239;28;20179;-68
2023/08/23 01:47:10;;;;;;;11.00;7.27;;;;;;;;;;5017680;28;20290;-69
2023/08/23 01:49:36;;;;;;;9.13;7.10;;;;;;;;;;5035562;28;20182;-68
2023/08/23 01:52:01;;;;;;;7.67;6.47;;;;;;;;;;5017679;28;20190;-68
2023/08/23 01:54:27;;;;;;;9.83;5.80;;;;;;;;;;5035180;28;20181;-68
2023/08/23 01:56:53;;;;;;;9.95;6.55;;;;;;;;;;5015754;28;20788;-68
2023/08/23 01:59:19;;;;;;;10.70;6.70;;;;;;;;;;5035511;28;20191;-68
2023/08/23 02:01:45;;;;;;;8.70;6.40;;;;;;;;;;5017119;28;20221;-68
2023/08/23 02:04:13;;;;;;;9.00;6.53;;;;;;;;;;5035045;28;20254;-69
2023/08/23 02:06:39;;;;;;;10.30;6.63;;;;;;;;;;5034560;28;20540;-68
2023/08/23 02:09:05;;;;;;;9.53;6.50;;;;;;;;;;5034803;28;20194;-69
2023/08/23 02:11:33;;;;;;;8.90;6.47;;;;;;;;;;5034985;28;20180;-67
2023/08/23 02:13:58;;;;;;;10.07;6.83;;;;;;;;;;5034717;28;20214;-68
2023/08/23 02:16:24;;;;;;;9.67;7.23;;;;;;;;;;5034759;28;20206;-68
2023/08/23 02:18:50;;;;;;;10.90;6.30;;;;;;;;;;5034711;28;20179;-68
2023/08/23 02:21:16;;;;;;;8.47;6.80;;;;;;;;;;5034574;28;20198;-67
2023/08/23 02:23:42;;;;;;;9.77;6.33;;;;;;;;;;5016725;28;20210;-67
2023/08/23 02:26:08;;;;;;;7.23;6.10;;;;;;;;;;5034656;28;20652;-68
2023/08/23 02:28:34;;;;;;;8.10;7.30;;;;;;;;;;5034545;28;20179;-68
2023/08/23 02:31:04;;;;;;;13.90;7.47;;;;;;;;;;5016587;28;20301;-68
2023/08/23 02:33:30;;;;;;;9.87;7.30;;;;;;;;;;5034571;28;20691;-67
2023/08/23 02:35:56;;;;;;;13.07;7.83;;;;;;;;;;5035147;28;20194;-68
2023/08/23 02:38:22;;;;;;;10.27;7.37;;;;;;;;;;5034818;28;20258;-68
2023/08/23 02:40:47;;;;;;;10.90;8.37;;;;;;;;;;5034707;28;20190;-68
2023/08/23 02:43:13;;;;;;;15.87;9.23;;;;;;;;;;5035010;28;20254;-68
2023/08/23 02:45:40;;;;;;;12.57;7.93;;;;;;;;;;5034272;28;20183;-68
2023/08/23 02:48:09;;;;;;;10.50;8.70;;;;;;;;;;5035336;28;20254;-69
2023/08/23 02:50:35;;;;;;;13.23;8.33;;;;;;;;;;5034910;28;20649;-68
2023/08/23 02:53:01;;;;;;;12.37;9.10;;;;;;;;;;5035357;28;20240;-68
2023/08/23 02:55:27;;;;;;;13.18;10.07;;;;;;;;;;5034087;28;20379;-68
2023/08/23 02:57:53;;;;;;;11.63;9.17;;;;;;;;;;5034003;28;20270;-69
2023/08/23 03:00:19;;;;;;;12.47;9.37;;;;;;;;;;5016369;28;20176;-68
2023/08/23 03:02:45;;;;;;;13.73;9.50;;;;;;;;;;5033950;28;20206;-67
2023/08/23 03:05:11;;;;;;;15.63;9.80;;;;;;;;;;5034209;28;20222;-68
2023/08/23 03:07:37;;;;;;;11.93;9.93;;;;;;;;;;5033837;28;20203;-68
2023/08/23 03:10:03;;;;;;;14.07;9.50;;;;;;;;;;5016323;28;20623;-68
2023/08/23 03:12:29;;;;;;;13.07;10.03;;;;;;;;;;5033640;28;20186;-68
2023/08/23 03:14:55;;;;;;;16.30;10.23;;;;;;;;;;5033824;28;20597;-68
2023/08/23 03:17:21;;;;;;;16.83;9.67;;;;;;;;;;5033640;28;20230;-68
2023/08/23 03:19:46;;;;;;;12.83;9.57;;;;;;;;;;5033765;28;20202;-68
2023/08/23 03:22:12;;;;;;;17.47;10.20;;;;;;;;;;5015977;28;20214;-67
2023/08/23 03:24:38;;;;;;;16.53;10.60;;;;;;;;;;5033437;28;20183;-68
2023/08/23 03:27:04;;;;;;;17.07;9.97;;;;;;;;;;5033309;28;20221;-68
2023/08/23 03:29:30;;;;;;;12.60;9.40;;;;;;;;;;5015947;28;20217;-68
2023/08/23 03:31:56;;;;;;;11.90;9.87;;;;;;;;;;5033560;28;20214;-68
2023/08/23 03:34:22;;;;;;;13.97;10.13;;;;;;;;;;5033457;28;20190;-68
2023/08/23 03:36:49;;;;;;;13.73;10.27;;;;;;;;;;5015858;28;20213;-68
2023/08/23 03:39:15;;;;;;;12.97;10.43;;;;;;;;;;5015947;28;20618;-68
2023/08/23 03:41:41;;;;;;;14.77;10.23;;;;;;;;;;5015528;28;20207;-68
2023/08/23 03:44:06;;;;;;;12.37;9.93;;;;;;;;;;5015725;28;20649;-67
2023/08/23 03:46:32;;;;;;;12.07;9.53;;;;;;;;;;5033353;28;20689;-68
2023/08/23 03:48:58;;;;;;;13.20;10.20;;;;;;;;;;5033527;28;20182;-68
2023/08/23 03:51:24;;;;;;;14.93;10.50;;;;;;;;;;5033416;28;20187;-68
2023/08/23 03:53:50;;;;;;;15.85;12.10;;;;;;;;;;5031892;28;20406;-67
2023/08/23 03:56:16;;;;;;;15.73;11.88;;;;;;;;;;5031863;28;20414;-66
2023/08/23 03:58:43;;;;;;;12.90;10.30;;;;;;;;;;5035676;28;20842;-68
2023/08/23 04:01:09;;;;;;;;;;;;;;;;;;5019605;28;20459;-65
2023/08/23 04:03:35;;;;;;;;;;;;;;;;;;5037770;28;19954;-67
2023/08/23 04:06:01;;;;;;;;;;;;;;;;;;5019800;28;19905;-69
2023/08/23 04:08:27;;;;;;;;;;;;;;;;;;5019629;28;20006;-68
2023/08/23 04:10:52;;;;;;;15.68;12.07;;;;;;;;;;5035806;28;20386;-67
2023/08/23 04:13:18;;;;;;;13.68;12.20;;;;;;;;;;5036228;28;20738;-68
2023/08/23 04:15:45;;;;;;;15.30;12.47;;;;;;;;;;5035900;28;20741;-68
2023/08/23 04:18:11;;;;;;;14.85;11.57;;;;;;;;;;5018174;28;20391;-68
2023/08/23 04:20:37;;;;;;;15.77;12.68;;;;;;;;;;5035855;28;20394;-68
2023/08/23 04:23:04;;;;;;;17.25;13.52;;;;;;;;;;5021184;28;20382;-69
2023/08/23 04:25:30;;;;;;;16.65;12.70;;;;;;;;;;5037504;28;20391;-68
2023/08/23 04:27:56;;;;;;;15.33;12.87;;;;;;;;;;5019081;28;20429;-68
2023/08/23 04:30:22;;;;;;;15.13;13.32;;;;;;;;;;5035545;28;20466;-68
2023/08/23 04:32:48;;;;;;;14.93;12.70;;;;;;;;;;5035581;28;20382;-67
2023/08/23 04:35:14;;;;;;;13.48;11.98;;;;;;;;;;5017799;28;20698;-68
2023/08/23 04:37:40;;;;;;;18.03;12.63;;;;;;;;;;5035517;28;20374;-68
2023/08/23 04:40:09;;;;;;;16.83;11.75;;;;;;;;;;5035457;28;20470;-68
2023/08/23 04:42:37;;;;;;;13.27;11.87;;;;;;;;;;5017659;28;20414;-66
2023/08/23 04:45:03;;;;;;;13.13;11.60;;;;;;;;;;5035411;28;20379;-68
2023/08/23 04:47:30;;;;;;;17.33;12.95;;;;;;;;;;5035267;28;20398;-68
2023/08/23 04:49:56;;;;;;;13.90;11.18;;;;;;;;;;5035168;28;20880;-68
2023/08/23 04:52:22;;;;;;;14.68;10.88;;;;;;;;;;5017353;28;20380;-69
2023/08/23 04:54:48;;;;;;;13.57;11.23;;;;;;;;;;5035223;28;20941;-68
2023/08/23 04:57:14;;;;;;;13.23;10.30;;;;;;;;;;5035973;28;20434;-68
2023/08/23 04:59:40;;;;;;;13.32;10.50;;;;;;;;;;5035604;28;20383;-67
2023/08/23 05:02:06;;;;;;;13.53;10.10;;;;;;;;;;5036052;28;20414;-68
2023/08/23 05:04:32;;;;;;;15.80;10.00;;;;;;;;;;5017179;28;20379;-68
2023/08/23 05:06:58;;;;;;;12.52;9.63;;;;;;;;;;5034893;28;20379;-68
2023/08/23 05:09:25;;;;;;;11.57;9.20;;;;;;;;;;5034685;28;20410;-68
2023/08/23 05:11:51;;;;;;;14.77;9.03;;;;;;;;;;5034848;28;20379;-68
2023/08/23 05:14:17;;;;;;;9.30;8.10;;;;;;;;;;5034799;28;20745;-67
2023/08/23 05:16:43;;;;;;;13.35;8.27;;;;;;;;;;5034995;28;20391;-68
2023/08/23 05:19:09;;;;;;;10.93;7.97;;;;;;;;;;5035020;28;20383;-68
2023/08/23 05:21:35;;;;;;;11.40;8.37;;;;;;;;;;5034912;28;20407;-68
2023/08/23 05:24:01;;;;;;;11.40;8.70;;;;;;;;;;5017150;28;20434;-68
2023/08/23 05:26:27;;;;;;;12.50;8.57;;;;;;;;;;5034742;28;20386;-68
2023/08/23 05:28:53;;;;;;;11.10;7.53;;;;;;;;;;5017091;28;20402;-68
2023/08/23 05:31:19;;;;;;;11.00;8.00;;;;;;;;;;5017271;28;20382;-67
2023/08/23 05:33:45;;;;;;;11.63;8.45;;;;;;;;;;5034834;28;20395;-68
2023/08/23 05:36:11;;;;;;;12.37;8.57;;;;;;;;;;5017077;28;20391;-68
2023/08/23 05:38:37;;;;;;;12.52;8.15;;;;;;;;;;5034687;28;20865;-68
2023/08/23 05:41:03;;;;;;;13.68;9.52;;;;;;;;;;5017039;28;20909;-68
2023/08/23 05:43:29;;;;;;;12.05;9.50;;;;;;;;;;5034746;28;20379;-68
2023/08/23 05:45:56;;;;;;;17.58;10.13;;;;;;;;;;5034234;28;20388;-69
2023/08/23 05:48:22;;;;;;;23.70;10.60;;;;;;;;;;5034392;28;20386;-67
2023/08/23 05:50:48;;;;;;;16.17;9.75;;;;;;;;;;5034231;28;20367;-68
2023/08/23 05:53:19;;;;;;;14.85;9.98;;;;;;;;;;5034320;28;20382;-67
2023/08/23 05:55:48;;;;;;;16.08;8.82;;;;;;;;;;5034566;28;20379;-68
2023/08/23 05:58:18;;;;;;;16.30;9.43;;;;;;;;;;5034461;28;20398;-69
2023/08/23 06:00:44;;;;;;;16.35;9.75;;;;;;;;;;5033912;28;20447;-68
2023/08/23 06:03:10;;;;;;;19.63;10.13;;;;;;;;;;5034693;28;20382;-68
2023/08/23 06:05:36;;;;;;;16.73;9.80;;;;;;;;;;5034027;28;20387;-68
2023/08/23 06:08:03;;;;;;;21.07;10.53;;;;;;;;;;5033834;28;20414;-68
2023/08/23 06:10:29;;;;;;;20.60;10.07;;;;;;;;;;5035069;28;20167;-68
2023/08/23 06:12:55;;;;;;;13.00;9.50;;;;;;;;;;5034753;28;20608;-68
2023/08/23 06:15:21;;;;;;;21.93;11.20;;;;;;;;;;5034758;28;20187;-69
2023/08/23 06:17:47;;;;;;;20.70;11.17;;;;;;;;;;5034303;28;20237;-68
2023/08/23 06:20:13;;;;;;;19.23;10.77;;;;;;;;;;5016143;28;20187;-68
2023/08/23 06:22:39;;;;;;;23.43;11.47;;;;;;;;;;5016200;28;20215;-68
2023/08/23 06:25:05;;;;;;;26.57;10.43;;;;;;;;;;5034264;28;20175;-69
2023/08/23 06:27:31;;;;;;;19.67;10.60;;;;;;;;;;5034777;28;20562;-68
2023/08/23 06:29:57;;;;;;;22.93;10.83;;;;;;;;;;5034409;28;20262;-68
2023/08/23 06:32:25;;;;;;;22.77;12.20;;;;;;;;;;5034087;28;20186;-68
2023/08/23 06:34:53;;;;;;;31.57;15.80;;;;;;;;;;5034209;28;20179;-68
2023/08/23 06:37:19;;;;;;;34.63;17.53;;;;;;;;;;5034768;28;20191;-68
2023/08/23 06:39:45;;;;;;;22.13;11.77;;;;;;;;;;5036230;28;20193;-68
2023/08/23 06:42:11;;;;;;;26.77;12.17;;;;;;;;;;5034554;28;20567;-68
2023/08/23 06:44:37;;;;;;;24.63;11.93;;;;;;;;;;5033985;28;20175;-68
2023/08/23 06:47:03;;;;;;;39.13;11.83;;;;;;;;;;5033703;28;20190;-68
2023/08/23 06:49:29;;;;;;;19.63;11.53;;;;;;;;;;5033714;28;20202;-68
2023/08/23 06:51:55;;;;;;;24.73;11.67;;;;;;;;;;5033763;28;20656;-68
2023/08/23 06:54:21;;;;;;;20.43;10.90;;;;;;;;;;5033803;28;20681;-68
2023/08/23 06:56:47;;;;;;;31.40;11.77;;;;;;;;;;5033685;28;20219;-68
2023/08/23 06:59:13;;;;;;;19.43;11.00;;;;;;;;;;5033638;28;20190;-68
2023/08/23 07:01:39;;;;;;;17.07;10.57;;;;;;;;;;5033636;28;20199;-67
2023/08/23 07:04:05;;;;;;;20.60;12.03;;;;;;;;;;5033813;28;20252;-67
2023/08/23 07:06:31;;;;;;;27.27;12.37;;;;;;;;;;5015692;28;20245;-68
2023/08/23 07:08:58;;;;;;;29.03;14.43;;;;;;;;;;5033821;28;20305;-68
2023/08/23 07:11:24;;;;;;;34.27;13.33;;;;;;;;;;5033747;28;20697;-68
2023/08/23 07:13:49;;;;;;;32.53;14.23;;;;;;;;;;5033398;28;20206;-67
2023/08/23 07:16:15;;;;;;;22.53;12.50;;;;;;;;;;5033228;28;20203;-68
2023/08/23 07:18:42;;;;;;;29.27;13.27;;;;;;;;;;5033607;28;20175;-68
2023/08/23 07:21:09;;;;;;;20.83;11.93;;;;;;;;;;5033346;28;20203;-68
2023/08/23 07:23:35;;;;;;;22.77;12.83;;;;;;;;;;5033567;28;20262;-68
2023/08/23 07:26:03;;;;;;;31.10;13.80;;;;;;;;;;5015595;28;20704;-68
2023/08/23 07:28:29;;;;;;;29.60;14.63;;;;;;;;;;5033232;28;20217;-68
2023/08/23 07:30:58;;;;;;;26.73;14.23;;;;;;;;;;5033410;28;20175;-68
2023/08/23 07:33:25;;;;;;;26.37;15.23;;;;;;;;;;5033125;28;20187;-67
2023/08/23 07:35:58;;;;;;;27.03;13.53;;;;;;;;;;5015284;28;20203;-68
2023/08/23 07:38:24;;;;;;;25.50;13.60;;;;;;;;;;5033204;28;20183;-68
2023/08/23 07:40:50;;;;;;;27.77;14.27;;;;;;;;;;5015061;28;20228;-68
2023/08/23 07:43:17;;;;;;;25.00;13.63;;;;;;;;;;5032941;28;20206;-68
2023/08/23 07:45:43;;;;;;;19.00;12.60;;;;;;;;;;5015001;28;20265;-68
2023/08/23 07:48:09;;;;;;;20.47;12.10;;;;;;;;;;5015349;28;20226;-68
2023/08/23 07:50:35;;;;;;;21.53;12.27;;;;;;;;;;5015169;28;20245;-68
2023/08/23 07:53:01;;;;;;;20.27;12.93;;;;;;;;;;5033682;28;20183;-67
2023/08/23 07:55:27;;;;;;;22.87;12.33;;;;;;;;;;5017421;28;20193;-68
2023/08/23 07:57:53;;;;;;;20.53;12.53;;;;;;;;;;5034182;28;20198;-68
2023/08/23 08:00:20;;;;;;;24.63;12.53;;;;;;;;;;5016959;28;20229;-67
2023/08/23 08:02:46;;;;;;;25.97;13.03;;;;;;;;;;5033764;28;20654;-67
2023/08/23 08:05:12;;;;;;;;;;;;;;;;;;5015428;28;20036;-68
2023/08/23 08:07:38;;;;;;;;;;;;;;;;;;5033349;28;19912;-68
2023/08/23 08:10:04;;;;;;;26.90;11.90;;;;;;;;;;5033473;28;19905;-68
2023/08/23 08:12:30;;;;;;;16.10;11.40;;;;;;;;;;5033263;28;20186;-68
2023/08/23 08:14:56;;;;;;;19.93;11.60;;;;;;;;;;5033067;28;20543;-68
2023/08/23 08:17:22;;;;;;;17.70;10.60;;;;;;;;;;5032730;28;20692;-68
2023/08/23 08:19:48;;;;;;;17.20;11.30;;;;;;;;;;5032732;28;20175;-68
2023/08/23 08:22:14;;;;;;;17.03;10.97;;;;;;;;;;5032854;28;20236;-68
2023/08/23 08:24:40;;;;;;;16.00;10.60;;;;;;;;;;5033104;28;20254;-67
2023/08/23 08:27:07;;;;;;;14.97;9.80;;;;;;;;;;5032333;28;20199;-68
2023/08/23 08:29:32;;;;;;;16.77;9.90;;;;;;;;;;5014720;28;20179;-68
2023/08/23 08:31:58;;;;;;;17.87;10.27;;;;;;;;;;5032816;28;20630;-67
2023/08/23 08:34:24;;;;;;;13.67;9.87;;;;;;;;;;5014652;28;20618;-67
2023/08/23 08:36:50;;;;;;;13.37;9.13;;;;;;;;;;5032269;28;20234;-68
2023/08/23 08:39:16;;;;;;;16.17;10.23;;;;;;;;;;5032864;28;20183;-67
2023/08/23 08:41:44;;;;;;;21.60;10.33;;;;;;;;;;5032657;28;20206;-67
2023/08/23 08:44:12;;;;;;;15.97;10.23;;;;;;;;;;5015334;28;20179;-67
2023/08/23 08:46:39;;;;;;;16.03;10.67;;;;;;;;;;5036133;28;20680;-68
2023/08/23 08:49:05;;;;;;;15.13;10.47;;;;;;;;;;5036484;28;20176;-68
2023/08/23 08:51:35;;;;;;;19.13;10.47;;;;;;;;;;5036790;28;20175;-68
2023/08/23 08:54:01;;;;;;;20.10;11.43;;;;;;;;;;5039008;28;20183;-68
2023/08/23 08:56:28;;;;;;;17.80;10.57;;;;;;;;;;5037265;28;20250;-68
2023/08/23 08:58:55;;;;;;;16.60;9.63;;;;;;;;;;5036613;28;20190;-67
2023/08/23 09:01:21;;;;;;;15.40;11.15;;;;;;;;;;5034561;28;20809;-68
2023/08/23 09:03:47;;;;;;;14.77;10.35;;;;;;;;;;5016835;28;20881;-68
2023/08/23 09:06:13;;;;;;;13.20;9.30;;;;;;;;;;5035572;28;20261;-68
2023/08/23 09:08:39;;;;;;;14.50;8.33;;;;;;;;;;5017802;28;20634;-67
2023/08/23 09:11:05;;;;;;;11.53;7.63;;;;;;;;;;5035681;28;20182;-68
2023/08/23 09:13:31;;;;;;;12.53;7.97;;;;;;;;;;5034462;28;20441;-67
2023/08/23 09:15:58;;;;;;;12.80;7.30;;;;;;;;;;5035511;28;20195;-68
2023/08/23 09:18:24;;;;;;;12.60;8.30;;;;;;;;;;5017678;28;20187;-67
2023/08/23 09:20:50;;;;;;;10.13;6.93;;;;;;;;;;5035412;28;20179;-68
2023/08/23 09:23:16;;;;;;;12.57;6.97;;;;;;;;;;5017594;28;20211;-67
2023/08/23 09:25:42;;;;;;;11.83;8.10;;;;;;;;;;5035195;28;20257;-68
2023/08/23 09:28:15;;;;;;;18.10;8.10;;;;;;;;;;5035418;28;20254;-67
2023/08/23 09:30:41;;;;;;;12.43;7.00;;;;;;;;;;5035188;28;20199;-67
2023/08/23 09:33:09;;;;;;;11.83;7.00;;;;;;;;;;5035222;28;20652;-68
2023/08/23 09:35:35;;;;;;;13.87;6.93;;;;;;;;;;5035134;28;20194;-68
2023/08/23 09:38:04;;;;;;;10.80;7.17;;;;;;;;;;5035049;28;20183;-67
2023/08/23 09:40:30;;;;;;;10.00;7.20;;;;;;;;;;5017316;28;20175;-67
2023/08/23 09:42:56;;;;;;;10.87;7.70;;;;;;;;;;5033858;28;20962;-68
2023/08/23 09:45:23;;;;;;;13.23;8.43;;;;;;;;;;5035193;28;20270;-67
2023/08/23 09:47:53;;;;;;;12.35;8.80;;;;;;;;;;5033746;28;20378;-68
2023/08/23 09:50:20;;;;;;;14.83;8.50;;;;;;;;;;5034760;28;20656;-67
2023/08/23 09:52:49;;;;;;;11.80;7.37;;;;;;;;;;5034793;28;20151;-67
2023/08/23 09:55:15;;;;;;;10.52;7.53;;;;;;;;;;5033651;28;20391;-67
2023/08/23 09:57:41;;;;;;;11.63;7.40;;;;;;;;;;5033578;28;20442;-67
2023/08/23 10:00:08;;;;;;;9.53;6.63;;;;;;;;;;5034858;28;20175;-68
2023/08/23 10:02:34;;;;;;;10.50;6.67;;;;;;;;;;5034705;28;20752;-67
2023/08/23 10:05:06;;;;;;;12.00;7.20;;;;;;;;;;5016797;28;20214;-68
2023/08/23 10:07:35;;;;;;;17.00;7.10;;;;;;;;;;5034601;28;20210;-67
2023/08/23 10:10:03;;;;;;;11.00;7.97;;;;;;;;;;5033474;28;20383;-67
2023/08/23 10:12:29;;;;;;;11.57;6.60;;;;;;;;;;5034505;28;20175;-67
2023/08/23 10:14:58;;;;;;;9.43;6.13;;;;;;;;;;5016628;28;20598;-68
2023/08/23 10:17:24;;;;;;;11.27;5.50;;;;;;;;;;5034381;28;20203;-67
2023/08/23 10:19:52;;;;;;;7.20;5.20;;;;;;;;;;5034513;28;20238;-68
2023/08/23 10:22:18;;;;;;;10.63;5.77;;;;;;;;;;5034599;28;20206;-68
2023/08/23 10:24:48;;;;;;;10.23;5.70;;;;;;;;;;5034422;28;20171;-68
2023/08/23 10:27:14;;;;;;;11.73;7.77;;;;;;;;;;5034060;28;20246;-68
2023/08/23 10:29:40;;;;;;;12.00;6.53;;;;;;;;;;5034438;28;20185;-68
2023/08/23 10:32:08;;;;;;;14.30;7.10;;;;;;;;;;5015101;28;20477;-68
2023/08/23 10:34:38;;;;;;;10.23;6.20;;;;;;;;;;5016394;28;20270;-69
2023/08/23 10:37:20;;;;;;;10.73;7.30;;;;;;;;;;5032851;28;20528;-68
2023/08/23 10:39:50;;;;;;;7.93;6.40;;;;;;;;;;5033878;28;20614;-68
2023/08/23 10:42:16;;;;;;;10.00;6.60;;;;;;;;;;5014926;28;20509;-68
2023/08/23 10:44:59;;;;;;;9.30;6.43;;;;;;;;;;5034081;28;20225;-67
2023/08/23 10:47:25;;;;;;;;;;;;;;;;;;5016269;28;20477;-68
2023/08/23 10:49:52;;;;;;;11.73;6.88;;;;;;;;;;5033698;28;19990;-68
2023/08/23 10:52:20;;;;;;;11.70;6.82;;;;;;;;;;5032635;28;20390;-67
2023/08/23 10:54:46;;;;;;;11.25;7.10;;;;;;;;;;5014575;28;20383;-68
2023/08/23 10:57:12;;;;;;;10.55;7.40;;;;;;;;;;5032188;28;20399;-67
2023/08/23 10:59:38;;;;;;;9.60;7.20;;;;;;;;;;5033035;28;20798;-67
2023/08/23 11:02:05;;;;;;;11.07;6.00;;;;;;;;;;5032274;28;20510;-68
2023/08/23 11:04:31;;;;;;;11.13;7.28;;;;;;;;;;5014631;28;20371;-68
2023/08/23 11:06:57;;;;;;;13.90;7.17;;;;;;;;;;5031776;28;20423;-68
2023/08/23 11:09:23;;;;;;;11.43;6.88;;;;;;;;;;5032582;28;20375;-68
2023/08/23 11:11:49;;;;;;;13.13;7.83;;;;;;;;;;5034260;28;20375;-67
2023/08/23 11:14:15;;;;;;;;;;;;;;;;;;5034717;28;20029;-68
2023/08/23 11:16:42;;;;;;;10.30;6.53;;;;;;;;;;5032336;28;20814;-67
2023/08/23 11:19:08;;;;;;;9.95;5.65;;;;;;;;;;5014379;28;20375;-68
2023/08/23 11:21:34;;;;;;;7.75;4.70;;;;;;;;;;5032513;28;20484;-68
2023/08/23 11:24:03;;;;;;;9.27;5.65;;;;;;;;;;5032094;28;20379;-68
2023/08/23 11:26:30;;;;;;;11.00;5.47;;;;;;;;;;5014264;28;20379;-68
2023/08/23 11:28:56;;;;;;;12.15;5.72;;;;;;;;;;5032181;28;20466;-68
2023/08/23 11:31:22;;;;;;;10.75;5.28;;;;;;;;;;5031846;28;20470;-67
2023/08/23 11:33:48;;;;;;;8.75;4.93;;;;;;;;;;5031777;28;20384;-67
2023/08/23 11:36:18;;;;;;;7.53;4.13;;;;;;;;;;5014003;28;20399;-68
2023/08/23 11:38:44;;;;;;;5.20;3.50;;;;;;;;;;5032100;28;20842;-68
2023/08/23 11:41:10;;;;;;;7.37;4.20;;;;;;;;;;5031880;28;20426;-68
2023/08/23 11:43:36;;;;;;;8.80;4.67;;;;;;;;;;5014830;28;20383;-67
2023/08/23 11:46:02;;;;;;;11.13;4.77;;;;;;;;;;5031683;28;20754;-68
2023/08/23 11:48:28;;;;;;;9.07;4.80;;;;;;;;;;5031898;28;20371;-68
2023/08/23 11:50:54;;;;;;;10.27;5.43;;;;;;;;;;5013970;28;20394;-68
2023/08/23 11:53:20;;;;;;;8.57;5.22;;;;;;;;;;5014047;28;20490;-67
2023/08/23 11:55:48;;;;;;;6.13;4.30;;;;;;;;;;5013750;28;20387;-68
2023/08/23 11:58:14;;;;;;;8.55;4.35;;;;;;;;;;5031773;28;20382;-68
2023/08/23 12:00:40;;;;;;;7.40;3.60;;;;;;;;;;5031651;28;20375;-68
2023/08/23 12:03:06;;;;;;;6.87;3.37;;;;;;;;;;5031858;28;20793;-68
2023/08/23 12:05:32;;;;;;;7.45;3.70;;;;;;;;;;5031489;28;20390;-68
2023/08/23 12:07:58;;;;;;;6.35;3.65;;;;;;;;;;5013791;28;20387;-69
2023/08/23 12:10:24;;;;;;;8.23;4.10;;;;;;;;;;5031644;28;20517;-69
2023/08/23 12:12:50;;;;;;;6.30;3.80;;;;;;;;;;5031690;28;20383;-69
2023/08/23 12:15:16;;;;;;;7.30;3.90;;;;;;;;;;5031639;28;20884;-68
2023/08/23 12:17:42;;;;;;;8.63;4.00;;;;;;;;;;5013507;28;20875;-68
2023/08/23 12:20:10;;;;;;;7.50;4.45;;;;;;;;;;5017345;28;20375;-68
2023/08/23 12:22:36;;;;;;;6.75;3.88;;;;;;;;;;5035153;28;20410;-67
2023/08/23 12:25:02;;;;;;;8.50;4.28;;;;;;;;;;5017556;28;20383;-68
2023/08/23 12:27:28;;;;;;;5.70;3.60;;;;;;;;;;5035237;28;20446;-68
2023/08/23 12:29:54;;;;;;;8.85;4.20;;;;;;;;;;5035101;28;20718;-69
2023/08/23 12:32:20;;;;;;;6.38;4.15;;;;;;;;;;5035098;28;20802;-68
2023/08/23 12:34:47;;;;;;;6.45;4.30;;;;;;;;;;5035629;28;20821;-69
2023/08/23 12:37:13;;;;;;;4.75;3.53;;;;;;;;;;5035020;28;20375;-68
2023/08/23 12:39:39;;;;;;;5.97;3.60;;;;;;;;;;5017202;28;20387;-68
2023/08/23 12:42:05;;;;;;;11.83;4.27;;;;;;;;;;5035036;28;20410;-68
2023/08/23 12:44:32;;;;;;;8.87;4.10;;;;;;;;;;5034858;28;20375;-68
2023/08/23 12:46:58;;;;;;;7.50;3.70;;;;;;;;;;5016976;28;20387;-68
2023/08/23 12:49:24;;;;;;;9.07;3.88;;;;;;;;;;5034695;28;20900;-68
2023/08/23 12:51:50;;;;;;;8.52;3.97;;;;;;;;;;5017247;28;20886;-68
2023/08/23 12:54:16;;;;;;;6.10;4.27;;;;;;;;;;5034615;28;20394;-68
2023/08/23 12:56:42;;;;;;;5.73;4.10;;;;;;;;;;5034503;28;20566;-68
2023/08/23 12:59:08;;;;;;;9.40;4.50;;;;;;;;;;5034634;28;20445;-68
2023/08/23 13:01:34;;;;;;;9.13;4.55;;;;;;;;;;5034675;28;20410;-68
2023/08/23 13:04:00;;;;;;;6.05;4.07;;;;;;;;;;5034414;28;20883;-68
2023/08/23 13:06:26;;;;;;;7.13;4.55;;;;;;;;;;5016546;28;20477;-69
2023/08/23 13:08:52;;;;;;;9.95;4.50;;;;;;;;;;5034402;28;20387;-68
2023/08/23 13:11:18;;;;;;;9.23;4.60;;;;;;;;;;5034805;28;20383;-68
2023/08/23 13:13:47;;;;;;;7.65;4.05;;;;;;;;;;5016436;28;20933;-68
2023/08/23 13:16:13;;;;;;;9.10;4.32;;;;;;;;;;5034112;28;20387;-69
2023/08/23 13:18:39;;;;;;;8.35;4.03;;;;;;;;;;5016398;28;20478;-68
2023/08/23 13:21:06;;;;;;;6.20;3.67;;;;;;;;;;5016345;28;20407;-68
2023/08/23 13:23:32;;;;;;;13.52;9.95;;;;;;;;;;5034164;28;20866;-68
2023/08/23 13:25:58;;;;;;;7.75;3.40;;;;;;;;;;5034396;28;20383;-68
2023/08/23 13:28:24;;;;;;;6.07;3.57;;;;;;;;;;5034105;28;20433;-68
2023/08/23 13:30:50;;;;;;;5.90;3.30;;;;;;;;;;5034310;28;20387;-68
2023/08/23 13:33:16;;;;;;;5.30;3.28;;;;;;;;;;5034110;28;20390;-68
2023/08/23 13:35:42;;;;;;;5.50;3.20;;;;;;;;;;5033938;28;20427;-68
2023/08/23 13:38:08;;;;;;;8.15;3.00;;;;;;;;;;5034253;28;20390;-68
2023/08/23 13:40:34;;;;;;;6.22;3.22;;;;;;;;;;5033857;28;20379;-68
2023/08/23 13:43:00;;;;;;;9.93;3.50;;;;;;;;;;5034133;28;20394;-68
2023/08/23 13:45:26;;;;;;;6.57;3.03;;;;;;;;;;5033743;28;20387;-68
2023/08/23 13:47:52;;;;;;;3.95;2.70;;;;;;;;;;5033885;28;20477;-68
2023/08/23 13:50:18;;;;;;;7.32;3.30;;;;;;;;;;5033955;28;20417;-68
2023/08/23 13:52:44;;;;;;;4.38;3.03;;;;;;;;;;5015946;28;20466;-68
2023/08/23 13:55:10;;;;;;;5.10;2.90;;;;;;;;;;5034173;28;20395;-68
2023/08/23 13:57:37;;;;;;;5.00;2.90;;;;;;;;;;5033472;28;20915;-68
2023/08/23 14:00:04;;;;;;;6.30;3.10;;;;;;;;;;5033542;28;20458;-68
2023/08/23 14:02:30;;;;;;;7.45;3.75;;;;;;;;;;5015766;28;20410;-68
2023/08/23 14:04:56;;;;;;;6.50;3.00;;;;;;;;;;5015496;28;20451;-68
2023/08/23 14:07:22;;;;;;;5.45;2.90;;;;;;;;;;5033542;28;20384;-69
2023/08/23 14:09:48;;;;;;;6.25;2.90;;;;;;;;;;5033270;28;20384;-70
2023/08/23 14:12:14;;;;;;;5.32;2.97;;;;;;;;;;5034163;28;20485;-69
2023/08/23 14:14:40;;;;;;;6.10;3.17;;;;;;;;;;5034265;28;20702;-69
2023/08/23 14:17:06;;;;;;;5.25;3.08;;;;;;;;;;5034947;28;20574;-68
2023/08/23 14:19:42;;;;;;;5.13;2.92;;;;;;;;;;5034249;28;20573;-69
2023/08/23 14:22:08;;;;;;;7.05;3.05;;;;;;;;;;5016394;28;20202;-69
2023/08/23 14:24:34;;;;;;;;;;;;;;;;;;5034857;28;20495;-69
2023/08/23 14:27:00;;;;;;;;;;;;;;;;;;5016788;28;19905;-68
2023/08/23 14:29:26;;;;;;;;;;;;;;;;;;5034511;28;19905;-68